Time;durP1;ratioP1;P1;durP2;ratioP2;P2;SDS_P1;SDS_P2;PMS_P1;PMS_P2;Temp;Humidity;BMP_temperature;BMP_pressure;BME280_temperature;BME280_humidity;BME280_pressure;Samples;Min_cycle;Max_cycle;Signal;HPM_P1;HPM_P2
2023/06/24 00:01:19;;;;;;;;;;;17.90;83.20;;;;;;5138199;27;19915;-82
2023/06/24 00:03:46;;;;;;;;;;;17.90;83.10;;;;;;5092897;28;19912;-80
2023/06/24 00:06:18;;;;;;;;;;;17.80;83.50;;;;;;5119970;27;19918;-81
2023/06/24 00:08:47;;;;;;;;;;;17.80;83.80;;;;;;5094105;28;19912;-78
2023/06/24 00:11:15;;;;;;;;;;;17.80;83.50;;;;;;5094784;28;19912;-79
2023/06/24 00:13:41;;;;;;;;;;;17.80;83.80;;;;;;5093699;28;19935;-81
2023/06/24 00:16:07;;;;;;;;;;;17.70;83.80;;;;;;5098395;28;19918;-82
2023/06/24 00:18:33;;;;;;;;;;;17.80;83.60;;;;;;5095994;27;19971;-81
2023/06/24 00:20:58;;;;;;;;;;;17.90;82.90;;;;;;5114404;28;20287;-81
2023/06/24 00:23:24;;;;;;;;;;;17.80;83.10;;;;;;5098424;28;19912;-81
2023/06/24 00:25:54;;;;;;;;;;;17.90;83.00;;;;;;5097439;28;19907;-80
2023/06/24 00:28:19;;;;;;;;;;;17.80;83.10;;;;;;5099888;27;19912;-81
2023/06/24 00:30:48;;;;;;;;;;;17.70;83.60;;;;;;5121055;27;19908;-79
2023/06/24 00:33:14;;;;;;;;;;;17.60;83.90;;;;;;5097015;27;19912;-79
2023/06/24 00:35:40;;;;;;;;;;;17.70;84.50;;;;;;5119518;27;19943;-81
2023/06/24 00:38:05;;;;;;;;;;;17.70;84.60;;;;;;5094439;27;19951;-78
2023/06/24 00:40:31;;;;;;;;;;;17.70;84.60;;;;;;5109656;27;19951;-79
2023/06/24 00:42:57;;;;;;;;;;;17.60;84.30;;;;;;5117532;27;20421;-80
2023/06/24 00:45:23;;;;;;;;;;;17.70;84.20;;;;;;5099765;28;19912;-80
2023/06/24 00:47:49;;;;;;;;;;;17.70;84.00;;;;;;5106230;28;20003;-80
2023/06/24 00:50:15;;;;;;;;;;;17.70;84.00;;;;;;5123226;28;19927;-80
2023/06/24 00:52:43;;;;;;;;;;;17.70;83.60;;;;;;5107562;28;20389;-81
2023/06/24 00:55:14;;;;;;;;;;;17.70;83.30;;;;;;5116408;27;19936;-81
2023/06/24 00:57:40;;;;;;;;;;;17.60;83.50;;;;;;5099259;28;20327;-79
2023/06/24 01:00:13;;;;;;;;;;;17.50;84.00;;;;;;5121187;27;19970;-80
2023/06/24 01:02:39;;;;;;;;;;;17.50;84.00;;;;;;5105058;28;19972;-80
2023/06/24 01:05:06;;;;;;;;;;;17.50;84.00;;;;;;5119088;27;19912;-79
2023/06/24 01:07:33;;;;;;;;;;;17.50;84.00;;;;;;5095054;28;19912;-80
2023/06/24 01:10:00;;;;;;;;;;;17.60;84.30;;;;;;5089542;27;19916;-79
2023/06/24 01:12:25;;;;;;;;;;;17.60;83.50;;;;;;5118080;27;19912;-80
2023/06/24 01:14:51;;;;;;;;;;;17.60;83.00;;;;;;5118771;27;19922;-79
2023/06/24 01:17:21;;;;;;;;;;;17.60;82.90;;;;;;5114860;27;19917;-79
2023/06/24 01:20:09;;;;;;;;;;;17.60;82.50;;;;;;5095023;28;20399;-77
2023/06/24 01:22:46;;;;;;;;;;;17.60;83.20;;;;;;5095162;28;19920;-79
2023/06/24 01:25:31;;;;;;;;;;;17.60;83.10;;;;;;5109361;28;19972;-80
2023/06/24 01:28:15;;;;;;;;;;;17.60;83.00;;;;;;5102394;27;20026;-80
2023/06/24 01:30:42;;;;;;;;;;;17.60;83.40;;;;;;5105067;28;19986;-81
2023/06/24 01:33:09;;;;;;;;;;;17.50;83.60;;;;;;5095230;28;19916;-80
2023/06/24 01:35:36;;;;;;;;;;;17.50;83.40;;;;;;5103534;27;19961;-80
2023/06/24 01:38:06;;;;;;;;;;;17.40;84.10;;;;;;5085272;28;19916;-79
2023/06/24 01:40:40;;;;;;;;;;;17.40;84.00;;;;;;5105089;27;19964;-81
2023/06/24 01:43:06;;;;;;;;;;;17.30;84.40;;;;;;5097326;28;19975;-81
2023/06/24 01:45:41;;;;;;;;;;;17.30;84.40;;;;;;5101949;28;19954;-81
2023/06/24 01:48:07;;;;;;;;;;;17.20;84.80;;;;;;5107369;28;19919;-81
2023/06/24 01:50:34;;;;;;;;;;;17.10;85.10;;;;;;5088878;28;19915;-82
2023/06/24 01:53:02;;;;;;;;;;;17.10;85.30;;;;;;5104884;28;19947;-81
2023/06/24 01:55:28;;;;;;;;;;;17.10;85.40;;;;;;5096673;28;20002;-81
2023/06/24 01:57:55;;;;;;;;;;;17.10;84.90;;;;;;5094652;28;20428;-78
2023/06/24 02:00:21;;;;;;;;;;;17.20;84.20;;;;;;5110530;28;19934;-80
2023/06/24 02:02:47;;;;;;;;;;;17.20;84.00;;;;;;5121251;28;19915;-78
2023/06/24 02:05:12;;;;;;;;;;;17.20;84.00;;;;;;5138488;27;19933;-78
2023/06/24 02:07:38;;;;;;;;;;;17.10;84.00;;;;;;5121683;28;19918;-78
2023/06/24 02:10:05;;;;;;;;;;;17.10;84.40;;;;;;5097618;28;20302;-79
2023/06/24 02:12:31;;;;;;;;;;;17.00;84.90;;;;;;5098458;28;20425;-81
2023/06/24 02:14:58;;;;;;;;;;;17.10;85.10;;;;;;5098379;28;20006;-81
2023/06/24 02:17:24;;;;;;;;;;;17.10;84.80;;;;;;5110441;28;19915;-81
2023/06/24 02:19:50;;;;;;;;;;;17.10;84.70;;;;;;5093250;28;20370;-81
2023/06/24 02:22:17;;;;;;;;;;;17.00;85.20;;;;;;5101579;28;20007;-81
2023/06/24 02:24:42;;;;;;;;;;;17.00;85.40;;;;;;5101094;28;19955;-81
2023/06/24 02:27:11;;;;;;;;;;;17.00;85.70;;;;;;5152097;22;20276;-89
2023/06/24 02:29:49;;;;;;;;;;;17.10;85.80;;;;;;5108806;28;19955;-89
2023/06/24 02:32:38;;;;;;;;;;;17.10;85.60;;;;;;5104655;28;20112;-89
2023/06/24 02:35:11;;;;;;;;;;;17.00;85.50;;;;;;5104551;28;19973;-89
2023/06/24 02:37:40;;;;;;;;;;;17.00;85.90;;;;;;5105566;28;20403;-89
2023/06/24 02:40:10;;;;;;;;;;;17.10;85.40;;;;;;5104602;28;20381;-89
2023/06/24 02:42:41;;;;;;;;;;;17.10;84.90;;;;;;5102774;28;19916;-89
2023/06/24 02:45:07;;;;;;;;;;;17.10;84.50;;;;;;5102941;28;19938;-88
2023/06/24 02:48:00;;;;;;;;;;;17.10;84.60;;;;;;5098320;28;20358;-89
2023/06/24 02:50:29;;;;;;;;;;;17.00;85.20;;;;;;5086962;28;19912;-90
2023/06/24 02:53:00;;;;;;;;;;;17.00;84.80;;;;;;5093986;28;19954;-90
2023/06/24 02:55:32;;;;;;;;;;;16.90;85.10;;;;;;5093669;28;19920;-89
2023/06/24 02:58:09;;;;;;;;;;;16.90;85.20;;;;;;5108023;28;19916;-89
2023/06/24 03:00:38;;;;;;;;;;;16.80;85.50;;;;;;5101985;27;19920;-88
2023/06/24 03:03:10;;;;;;;;;;;16.90;85.10;;;;;;5097869;28;19919;-89
2023/06/24 03:05:50;;;;;;;;;;;16.80;85.50;;;;;;5095145;28;20314;-89
2023/06/24 03:08:24;;;;;;;;;;;16.80;85.80;;;;;;5096141;28;19916;-89
2023/06/24 03:10:58;;;;;;;;;;;16.80;86.00;;;;;;5095097;28;19920;-89
2023/06/24 03:13:34;;;;;;;;;;;16.80;86.20;;;;;;5086015;28;19995;-89
2023/06/24 03:16:03;;;;;;;;;;;16.70;86.00;;;;;;5092914;28;19920;-89
2023/06/24 03:18:28;;;;;;;;;;;16.70;86.20;;;;;;5090975;28;19923;-89
2023/06/24 03:20:56;;;;;;;;;;;16.70;86.20;;;;;;5094261;28;19912;-89
2023/06/24 03:23:24;;;;;;;;;;;16.70;86.30;;;;;;5093187;28;19962;-89
2023/06/24 03:25:55;;;;;;;;;;;16.60;86.20;;;;;;5093227;28;19947;-90
2023/06/24 03:28:26;;;;;;;;;;;16.60;86.30;;;;;;5086396;28;20027;-89
2023/06/24 03:30:55;;;;;;;;;;;16.70;85.70;;;;;;5092502;28;19915;-89
2023/06/24 03:33:20;;;;;;;;;;;16.60;86.00;;;;;;5091516;28;20003;-90
2023/06/24 03:35:54;;;;;;;;;;;16.70;86.00;;;;;;5093166;28;20408;-90
2023/06/24 03:38:27;;;;;;;;;;;16.50;86.50;;;;;;5101425;28;19971;-89
2023/06/24 03:40:56;;;;;;;;;;;16.60;86.50;;;;;;5110147;28;19921;-89
2023/06/24 03:43:23;;;;;;;;;;;16.60;86.40;;;;;;5082141;28;19951;-89
2023/06/24 03:46:00;;;;;;;;;;;16.60;86.40;;;;;;5072990;28;19999;-89
2023/06/24 03:48:33;;;;;;;;;;;16.60;86.50;;;;;;5088498;28;19912;-89
2023/06/24 03:51:19;;;;;;;;;;;16.70;86.00;;;;;;5092560;28;19977;-89
2023/06/24 03:53:51;;;;;;;;;;;16.60;86.10;;;;;;5093228;28;19908;-89
2023/06/24 03:56:25;;;;;;;;;;;16.60;86.10;;;;;;5083350;28;20051;-89
2023/06/24 03:58:51;;;;;;;;;;;16.60;86.20;;;;;;5048003;22;20022;-84
2023/06/24 04:01:18;;;;;;;;;;;16.60;86.50;;;;;;4959469;28;19930;-83
2023/06/24 04:03:44;;;;;;;;;;;16.60;86.50;;;;;;4989348;28;19980;-84
2023/06/24 04:06:10;;;;;;;;;;;16.60;86.50;;;;;;4979645;28;19910;-83
2023/06/24 04:08:39;;;;;;;;;;;16.60;86.60;;;;;;4974545;28;19914;-84
2023/06/24 04:11:06;;;;;;;;;;;16.60;86.70;;;;;;4971495;28;20485;-83
2023/06/24 04:13:32;;;;;;;;;;;16.60;86.60;;;;;;4972251;28;19973;-85
2023/06/24 04:15:57;;;;;;;;;;;16.60;86.60;;;;;;4971220;28;20329;-84
2023/06/24 04:18:23;;;;;;;;;;;16.60;86.80;;;;;;5013392;28;20346;-81
2023/06/24 04:20:48;;;;;;;;;;;16.60;86.80;;;;;;5050618;28;19926;-82
2023/06/24 04:23:14;;;;;;;;;;;16.70;86.60;;;;;;5025516;28;20306;-82
2023/06/24 04:25:40;;;;;;;;;;;16.80;86.40;;;;;;4998791;28;20293;-84
2023/06/24 04:28:06;;;;;;;;;;;16.70;86.70;;;;;;4961597;28;20001;-85
2023/06/24 04:30:41;;;;;;;;;;;16.80;86.90;;;;;;4969203;28;19983;-83
2023/06/24 04:33:07;;;;;;;;;;;16.90;86.70;;;;;;4969249;28;19937;-84
2023/06/24 04:35:35;;;;;;;;;;;17.00;86.70;;;;;;4967639;28;19925;-84
2023/06/24 04:38:01;;;;;;;;;;;17.10;86.30;;;;;;4968806;28;19914;-84
2023/06/24 04:40:27;;;;;;;;;;;17.10;86.10;;;;;;5034176;28;19951;-84
2023/06/24 04:42:52;;;;;;;;;;;17.20;86.10;;;;;;4982331;28;19937;-84
2023/06/24 04:45:18;;;;;;;;;;;17.30;86.30;;;;;;4984544;28;19913;-84
2023/06/24 04:47:44;;;;;;;;;;;17.50;86.30;;;;;;4993432;28;19921;-84
2023/06/24 04:50:10;;;;;;;;;;;17.60;86.00;;;;;;4968081;28;20359;-84
2023/06/24 04:52:35;;;;;;;;;;;17.70;85.90;;;;;;4966461;28;20001;-84
2023/06/24 04:55:01;;;;;;;;;;;17.80;85.20;;;;;;4966173;28;19994;-84
2023/06/24 04:57:27;;;;;;;;;;;17.90;84.60;;;;;;4969274;28;19942;-85
2023/06/24 04:59:53;;;;;;;;;;;17.90;84.60;;;;;;4966673;28;20417;-85
2023/06/24 05:02:18;;;;;;;;;;;18.00;84.60;;;;;;4994414;28;19919;-84
2023/06/24 05:04:44;;;;;;;;;;;18.10;84.50;;;;;;5044431;28;19909;-84
2023/06/24 05:07:09;;;;;;;;;;;18.10;84.70;;;;;;5024434;28;19910;-84
2023/06/24 05:09:37;;;;;;;;;;;18.20;84.10;;;;;;5024188;28;19915;-83
2023/06/24 05:12:06;;;;;;;;;;;18.30;82.60;;;;;;4965738;28;20289;-83
2023/06/24 05:14:34;;;;;;;;;;;18.40;81.50;;;;;;4968623;28;20293;-84
2023/06/24 05:16:59;;;;;;;;;;;18.70;79.40;;;;;;4958966;28;19984;-83
2023/06/24 05:19:25;;;;;;;;;;;19.00;77.90;;;;;;4950289;28;19915;-81
2023/06/24 05:21:50;;;;;;;;;;;19.10;77.50;;;;;;4966637;28;19963;-83
2023/06/24 05:24:16;;;;;;;;;;;19.10;77.50;;;;;;4967135;28;20382;-83
2023/06/24 05:26:41;;;;;;;;;;;19.20;77.80;;;;;;4968527;28;19910;-82
2023/06/24 05:29:06;;;;;;;;;;;19.20;76.90;;;;;;4961260;28;20005;-83
2023/06/24 05:31:32;;;;;;;;;;;19.20;76.90;;;;;;4970647;28;19929;-83
2023/06/24 05:33:57;;;;;;;;;;;19.20;76.00;;;;;;4969240;28;19914;-82
2023/06/24 05:36:23;;;;;;;;;;;19.30;75.00;;;;;;5031607;28;20380;-84
2023/06/24 05:38:48;;;;;;;;;;;19.30;75.60;;;;;;4989688;28;19933;-83
2023/06/24 05:41:14;;;;;;;;;;;19.20;75.50;;;;;;5024954;28;19924;-82
2023/06/24 05:43:42;;;;;;;;;;;19.30;75.20;;;;;;4966975;28;20022;-81
2023/06/24 05:46:08;;;;;;;;;;;19.40;74.10;;;;;;4965695;28;19910;-83
2023/06/24 05:48:33;;;;;;;;;;;19.50;73.60;;;;;;4967973;28;19915;-82
2023/06/24 05:50:59;;;;;;;;;;;19.50;73.90;;;;;;5058152;28;20003;-83
2023/06/24 05:53:24;;;;;;;;;;;19.50;74.20;;;;;;5073018;28;19914;-82
2023/06/24 05:55:50;;;;;;;;;;;19.60;73.30;;;;;;5020178;28;20216;-83
2023/06/24 05:58:15;;;;;;;;;;;19.60;73.20;;;;;;5057763;28;19916;-83
2023/06/24 06:00:41;;;;;;;;;;;19.60;73.60;;;;;;4981706;28;19914;-83
2023/06/24 06:03:06;;;;;;;;;;;19.60;74.30;;;;;;4992121;28;19925;-83
2023/06/24 06:05:32;;;;;;;;;;;19.60;73.60;;;;;;4994923;28;19925;-83
2023/06/24 06:07:57;;;;;;;;;;;19.60;74.40;;;;;;5009039;28;20017;-83
2023/06/24 06:10:23;;;;;;;;;;;19.50;73.70;;;;;;4963408;28;19921;-82
2023/06/24 06:12:48;;;;;;;;;;;19.60;72.90;;;;;;5031919;28;19910;-82
2023/06/24 06:15:14;;;;;;;;;;;19.70;73.40;;;;;;4992356;28;19918;-83
2023/06/24 06:17:40;;;;;;;;;;;19.70;73.20;;;;;;4965303;28;19914;-83
2023/06/24 06:20:06;;;;;;;;;;;19.80;73.30;;;;;;4973842;28;19917;-83
2023/06/24 06:22:37;;;;;;;;;;;19.90;73.80;;;;;;5008918;28;19914;-82
2023/06/24 06:25:02;;;;;;;;;;;20.00;73.60;;;;;;4991437;28;19928;-81
2023/06/24 06:27:28;;;;;;;;;;;20.00;73.50;;;;;;4962630;28;19914;-84
2023/06/24 06:29:53;;;;;;;;;;;20.00;71.90;;;;;;4967048;28;19925;-83
2023/06/24 06:32:19;;;;;;;;;;;20.00;72.50;;;;;;4998447;28;19912;-83
2023/06/24 06:34:44;;;;;;;;;;;19.90;73.40;;;;;;5026491;28;19923;-86
2023/06/24 06:37:10;;;;;;;;;;;19.90;73.90;;;;;;4986517;28;19938;-84
2023/06/24 06:39:35;;;;;;;;;;;20.10;73.30;;;;;;4967618;28;20353;-84
2023/06/24 06:42:01;;;;;;;;;;;20.20;72.20;;;;;;4953047;28;20019;-83
2023/06/24 06:44:26;;;;;;;;;;;20.40;72.50;;;;;;4957281;28;20298;-84
2023/06/24 06:46:52;;;;;;;;;;;20.60;72.30;;;;;;4994748;28;20053;-86
2023/06/24 06:49:17;;;;;;;;;;;20.60;71.90;;;;;;4963968;28;19914;-84
2023/06/24 06:51:43;;;;;;;;;;;20.50;71.70;;;;;;5004727;28;20420;-84
2023/06/24 06:54:08;;;;;;;;;;;20.50;72.10;;;;;;4965323;28;20249;-82
2023/06/24 06:56:34;;;;;;;;;;;20.60;71.60;;;;;;4997077;28;20009;-84
2023/06/24 06:58:59;;;;;;;;;;;20.60;71.30;;;;;;4965813;28;19945;-83
2023/06/24 07:01:25;;;;;;;;;;;20.70;71.10;;;;;;5025313;28;20377;-83
2023/06/24 07:03:50;;;;;;;;;;;20.90;71.10;;;;;;4965693;28;19924;-84
2023/06/24 07:06:18;;;;;;;;;;;20.90;71.60;;;;;;5030993;28;20272;-83
2023/06/24 07:08:43;;;;;;;;;;;21.10;71.40;;;;;;5015386;28;19930;-84
2023/06/24 07:11:08;;;;;;;;;;;21.30;71.10;;;;;;4973038;28;19914;-83
2023/06/24 07:13:34;;;;;;;;;;;21.50;70.40;;;;;;4967374;28;19918;-84
2023/06/24 07:15:59;;;;;;;;;;;21.30;70.20;;;;;;4968122;28;19971;-84
2023/06/24 07:18:30;;;;;;;;;;;21.40;70.20;;;;;;4991402;28;19953;-83
2023/06/24 07:20:55;;;;;;;;;;;21.50;68.90;;;;;;4968626;28;20373;-84
2023/06/24 07:23:21;;;;;;;;;;;21.50;69.40;;;;;;5019401;28;19923;-83
2023/06/24 07:25:46;;;;;;;;;;;21.50;69.70;;;;;;5015687;28;19933;-84
2023/06/24 07:28:12;;;;;;;;;;;21.60;68.80;;;;;;5046306;28;19924;-83
2023/06/24 07:30:37;;;;;;;;;;;21.60;69.00;;;;;;5050112;28;19981;-83
2023/06/24 07:33:05;;;;;;;;;;;21.60;68.80;;;;;;5009965;28;19925;-84
2023/06/24 07:35:31;;;;;;;;;;;21.80;69.20;;;;;;5004553;28;19917;-85
2023/06/24 07:37:57;;;;;;;;;;;22.00;68.90;;;;;;4964705;28;19941;-85
2023/06/24 07:40:22;;;;;;;;;;;22.10;68.50;;;;;;4987607;28;19922;-84
2023/06/24 07:42:48;;;;;;;;;;;22.10;68.00;;;;;;5007063;28;20301;-84
2023/06/24 07:45:13;;;;;;;;;;;22.40;68.20;;;;;;4977865;28;19910;-85
2023/06/24 07:47:39;;;;;;;;;;;22.50;67.20;;;;;;5000511;28;19935;-85
2023/06/24 07:50:06;;;;;;;;;;;22.50;67.10;;;;;;5052775;28;19974;-84
2023/06/24 07:52:31;;;;;;;;;;;22.50;66.40;;;;;;4966896;28;19970;-83
2023/06/24 07:54:57;;;;;;;;;;;22.40;67.10;;;;;;4988665;28;20369;-82
2023/06/24 07:57:22;;;;;;;;;;;22.40;68.20;;;;;;4983387;28;19987;-81
2023/06/24 07:59:47;;;;;;;;;;;22.40;68.70;;;;;;4994509;28;19924;-83
2023/06/24 08:02:13;;;;;;;;;;;22.50;67.00;;;;;;4979768;28;19972;-83
2023/06/24 08:04:39;;;;;;;;;;;22.60;66.30;;;;;;4993250;28;19967;-81
2023/06/24 08:07:04;;;;;;;;;;;22.80;65.90;;;;;;4957199;28;20353;-85
2023/06/24 08:09:30;;;;;;;;;;;22.60;65.80;;;;;;4971716;28;19921;-84
2023/06/24 08:11:56;;;;;;;;;;;22.60;66.70;;;;;;4974712;28;19929;-82
2023/06/24 08:14:21;;;;;;;;;;;22.70;66.30;;;;;;5059388;28;19967;-80
2023/06/24 08:16:46;;;;;;;;;;;22.60;67.40;;;;;;5008107;28;19950;-81
2023/06/24 08:19:30;;;;;;;;;;;22.80;67.30;;;;;;5002458;28;19996;-89
2023/06/24 08:21:55;;;;;;;;;;;22.80;67.00;;;;;;4970364;28;19968;-82
2023/06/24 08:24:21;;;;;;;;;;;22.90;66.50;;;;;;4989091;28;20322;-81
2023/06/24 08:26:47;;;;;;;;;;;23.00;66.80;;;;;;5069458;28;19908;-84
2023/06/24 08:29:12;;;;;;;;;;;23.30;65.90;;;;;;4975762;28;19963;-80
2023/06/24 08:31:40;;;;;;;;;;;23.40;66.10;;;;;;4990588;28;19921;-84
2023/06/24 08:34:09;;;;;;;;;;;23.40;66.70;;;;;;4995282;28;19929;-87
2023/06/24 08:36:36;;;;;;;;;;;23.40;65.70;;;;;;5015232;28;19997;-85
2023/06/24 08:39:07;;;;;;;;;;;23.50;66.50;;;;;;5044434;28;19925;-83
2023/06/24 08:41:33;;;;;;;;;;;23.40;66.50;;;;;;4965908;28;19918;-83
2023/06/24 08:43:58;;;;;;;;;;;23.50;66.70;;;;;;5027874;28;19940;-86
2023/06/24 08:46:25;;;;;;;;;;;23.50;67.10;;;;;;4985985;28;19920;-83
2023/06/24 08:48:56;;;;;;;;;;;23.60;66.10;;;;;;4966108;28;19969;-82
2023/06/24 08:51:24;;;;;;;;;;;23.60;65.20;;;;;;4988140;28;19997;-85
2023/06/24 08:53:49;;;;;;;;;;;23.60;65.60;;;;;;4991215;28;19914;-84
2023/06/24 08:56:15;;;;;;;;;;;23.70;65.70;;;;;;4969269;28;20274;-86
2023/06/24 08:58:40;;;;;;;;;;;23.70;66.50;;;;;;4965205;28;19925;-86
2023/06/24 09:01:07;;;;;;;;;;;23.70;65.40;;;;;;4966480;28;21368;-85
2023/06/24 09:03:32;;;;;;;;;;;23.80;65.30;;;;;;4963138;28;19960;-86
2023/06/24 09:05:58;;;;;;;;;;;23.80;65.00;;;;;;4985576;28;19949;-86
2023/06/24 09:08:23;;;;;;;;;;;23.70;65.60;;;;;;4979234;28;19985;-86
2023/06/24 09:10:55;;;;;;;;;;;23.70;65.70;;;;;;4979753;28;19914;-85
2023/06/24 09:13:22;;;;;;;;;;;23.80;64.10;;;;;;4966947;28;20005;-87
2023/06/24 09:15:48;;;;;;;;;;;23.80;64.40;;;;;;5010315;28;20046;-86
2023/06/24 09:18:16;;;;;;;;;;;23.80;64.80;;;;;;4986289;28;19917;-85
2023/06/24 09:20:44;;;;;;;;;;;23.90;63.30;;;;;;4987147;28;19914;-85
2023/06/24 09:23:10;;;;;;;;;;;24.00;63.60;;;;;;4974981;28;19957;-85
2023/06/24 09:25:41;;;;;;;;;;;24.00;62.80;;;;;;4973576;28;19956;-86
2023/06/24 09:28:07;;;;;;;;;;;24.20;62.30;;;;;;4983536;28;20329;-87
2023/06/24 09:30:32;;;;;;;;;;;24.30;62.60;;;;;;4965234;28;19922;-85
2023/06/24 09:32:58;;;;;;;;;;;24.20;62.80;;;;;;4966172;28;20000;-85
2023/06/24 09:35:24;;;;;;;;;;;24.30;62.00;;;;;;4979636;28;19977;-89
2023/06/24 09:37:51;;;;;;;;;;;24.60;62.10;;;;;;4964447;28;20378;-87
2023/06/24 09:40:17;;;;;;;;;;;24.80;60.80;;;;;;4986063;28;19912;-86
2023/06/24 09:42:49;;;;;;;;;;;24.90;59.90;;;;;;5048776;28;19922;-87
2023/06/24 09:45:21;;;;;;;;;;;24.90;59.70;;;;;;4966191;28;20305;-86
2023/06/24 09:47:47;;;;;;;;;;;24.80;60.30;;;;;;4978047;28;19917;-86
2023/06/24 09:50:12;;;;;;;;;;;24.90;58.40;;;;;;4967884;28;20376;-86
2023/06/24 09:52:38;;;;;;;;;;;24.60;58.50;;;;;;4964854;28;19918;-88
2023/06/24 09:55:04;;;;;;;;;;;24.50;59.80;;;;;;4964997;28;19926;-86
2023/06/24 09:57:34;;;;;;;;;;;24.40;59.30;;;;;;4965921;28;20050;-88
2023/06/24 10:00:01;;;;;;;;;;;24.40;59.80;;;;;;5021582;23;20030;-83
2023/06/24 10:02:28;;;;;;;;;;;24.30;60.20;;;;;;5028510;28;19950;-81
2023/06/24 10:04:54;;;;;;;;;;;24.20;59.80;;;;;;5019960;28;19925;-81
2023/06/24 10:07:19;;;;;;;;;;;24.20;60.40;;;;;;4959945;28;19915;-80
2023/06/24 10:09:45;;;;;;;;;;;24.40;59.10;;;;;;5024316;28;19914;-82
2023/06/24 10:12:10;;;;;;;;;;;24.40;60.40;;;;;;5023800;28;19922;-81
2023/06/24 10:14:36;;;;;;;;;;;24.50;60.50;;;;;;5028144;28;19989;-82
2023/06/24 10:17:05;;;;;;;;;;;24.80;60.00;;;;;;5028757;28;20001;-81
2023/06/24 10:19:36;;;;;;;;;;;24.90;58.10;;;;;;4960131;28;19921;-81
2023/06/24 10:22:02;;;;;;;;;;;24.90;57.70;;;;;;5047445;28;19918;-82
2023/06/24 10:24:32;;;;;;;;;;;24.90;57.60;;;;;;4957573;28;19917;-82
2023/06/24 10:27:04;;;;;;;;;;;24.70;57.80;;;;;;5041762;28;19922;-82
2023/06/24 10:29:30;;;;;;;;;;;24.60;57.60;;;;;;5026928;28;20009;-81
2023/06/24 10:32:00;;;;;;;;;;;24.60;58.50;;;;;;5025120;28;20005;-81
2023/06/24 10:34:30;;;;;;;;;;;24.70;56.80;;;;;;4959153;28;19914;-82
2023/06/24 10:37:08;;;;;;;;;;;24.70;56.50;;;;;;4959465;28;20014;-81
2023/06/24 10:39:50;;;;;;;;;;;24.90;57.00;;;;;;4959490;28;19943;-80
2023/06/24 10:42:18;;;;;;;;;;;25.00;58.20;;;;;;4964476;28;19926;-82
2023/06/24 10:44:47;;;;;;;;;;;25.10;56.60;;;;;;4959865;28;19964;-83
2023/06/24 10:47:12;;;;;;;;;;;25.30;56.60;;;;;;5025930;28;20492;-83
2023/06/24 10:49:38;;;;;;;;;;;25.30;56.30;;;;;;5030821;28;20008;-83
2023/06/24 10:52:03;;;;;;;;;;;25.30;55.80;;;;;;5027321;28;19922;-81
2023/06/24 10:54:29;;;;;;;;;;;25.10;55.90;;;;;;5028296;28;19915;-82
2023/06/24 10:56:55;;;;;;;;;;;25.10;56.50;;;;;;5030669;28;19989;-82
2023/06/24 10:59:21;;;;;;;;;;;25.20;55.00;;;;;;5031832;28;19977;-83
2023/06/24 11:01:53;;;;;;;;;;;25.20;54.20;;;;;;5034978;28;20403;-82
2023/06/24 11:04:19;;;;;;;;;;;25.10;55.70;;;;;;4963723;28;19925;-82
2023/06/24 11:07:04;;;;;;;;;;;25.30;53.60;;;;;;5033118;28;19914;-82
2023/06/24 11:09:30;;;;;;;;;;;25.50;52.20;;;;;;5025399;28;19926;-82
2023/06/24 11:11:55;;;;;;;;;;;25.50;53.50;;;;;;5031424;28;19918;-83
2023/06/24 11:14:21;;;;;;;;;;;25.60;50.70;;;;;;4959943;28;19921;-82
2023/06/24 11:16:46;;;;;;;;;;;25.70;50.80;;;;;;5021390;28;19918;-82
2023/06/24 11:19:12;;;;;;;;;;;25.80;54.10;;;;;;4959668;28;19918;-82
2023/06/24 11:21:37;;;;;;;;;;;25.70;52.30;;;;;;4962007;28;20013;-81
2023/06/24 11:24:03;;;;;;;;;;;25.80;51.40;;;;;;4963014;28;20345;-83
2023/06/24 11:26:29;;;;;;;;;;;25.80;49.10;;;;;;5027052;28;19915;-83
2023/06/24 11:28:54;;;;;;;;;;;25.80;49.10;;;;;;5028849;28;20043;-82
2023/06/24 11:31:24;;;;;;;;;;;25.70;49.80;;;;;;5041310;28;19914;-82
2023/06/24 11:33:50;;;;;;;;;;;25.70;47.00;;;;;;5030177;28;19918;-83
2023/06/24 11:36:19;;;;;;;;;;;25.50;47.50;;;;;;5027550;28;21897;-82
2023/06/24 11:38:47;;;;;;;;;;;25.70;46.50;;;;;;4964660;28;19955;-83
2023/06/24 11:41:13;;;;;;;;;;;25.80;45.50;;;;;;5025114;28;19925;-81
2023/06/24 11:43:45;;;;;;;;;;;25.70;46.80;;;;;;5023945;28;19938;-82
2023/06/24 11:46:20;;;;;;;;;;;25.80;47.90;;;;;;5026522;28;19921;-83
2023/06/24 11:48:45;;;;;;;;;;;25.60;47.20;;;;;;4964498;28;20284;-83
2023/06/24 11:51:14;;;;;;;;;;;25.70;45.40;;;;;;5030867;28;20048;-81
2023/06/24 11:53:43;;;;;;;;;;;25.80;45.40;;;;;;5029012;28;19953;-81
2023/06/24 11:56:09;;;;;;;;;;;25.90;46.60;;;;;;4963424;28;19914;-81
2023/06/24 11:58:37;;;;;;;;;;;25.90;44.10;;;;;;5028029;28;19930;-84
2023/06/24 12:01:03;;;;;;;;;;;25.90;44.80;;;;;;5045181;28;19926;-83
2023/06/24 12:03:29;;;;;;;;;;;26.00;43.10;;;;;;4962355;28;19926;-82
2023/06/24 12:05:55;;;;;;;;;;;26.10;42.30;;;;;;5026204;28;20016;-81
2023/06/24 12:08:22;;;;;;;;;;;26.10;43.00;;;;;;5024871;28;19953;-82
2023/06/24 12:10:48;;;;;;;;;;;26.00;42.70;;;;;;4958831;28;19914;-81
2023/06/24 12:13:14;;;;;;;;;;;25.90;42.90;;;;;;5030726;28;19941;-82
2023/06/24 12:15:39;;;;;;;;;;;25.90;42.10;;;;;;5030697;28;19918;-81
2023/06/24 12:18:05;;;;;;;;;;;25.80;42.30;;;;;;5024786;28;19918;-83
2023/06/24 12:20:31;;;;;;;;;;;25.90;43.00;;;;;;4962564;28;19961;-82
2023/06/24 12:22:57;;;;;;;;;;;26.00;40.80;;;;;;4964172;28;19918;-82
2023/06/24 12:25:23;;;;;;;;;;;26.20;37.80;;;;;;5031700;28;19914;-83
2023/06/24 12:27:49;;;;;;;;;;;26.40;40.00;;;;;;4963575;28;19961;-82
2023/06/24 12:30:16;;;;;;;;;;;26.40;36.70;;;;;;5026632;28;19914;-81
2023/06/24 12:32:42;;;;;;;;;;;26.40;37.80;;;;;;5018447;28;19965;-81
2023/06/24 12:35:10;;;;;;;;;;;26.50;41.20;;;;;;5028481;28;19945;-81
2023/06/24 12:37:35;;;;;;;;;;;26.50;41.70;;;;;;5020664;28;19919;-81
2023/06/24 12:40:02;;;;;;;;;;;26.50;43.10;;;;;;5025122;28;19914;-81
2023/06/24 12:42:27;;;;;;;;;;;26.50;43.00;;;;;;5023171;28;19925;-83
2023/06/24 12:44:53;;;;;;;;;;;26.50;39.30;;;;;;5024749;28;20373;-82
2023/06/24 12:47:19;;;;;;;;;;;26.50;38.90;;;;;;4964888;28;20009;-83
2023/06/24 12:49:44;;;;;;;;;;;26.50;38.50;;;;;;5029015;28;20078;-82
2023/06/24 12:52:10;;;;;;;;;;;26.40;37.70;;;;;;4961372;28;19974;-82
2023/06/24 12:54:35;;;;;;;;;;;26.40;40.60;;;;;;5021439;28;19941;-83
2023/06/24 12:57:01;;;;;;;;;;;26.40;40.90;;;;;;4965925;28;20352;-84
2023/06/24 12:59:27;;;;;;;;;;;26.50;38.00;;;;;;5028884;28;19918;-81
2023/06/24 13:01:52;;;;;;;;;;;26.60;38.50;;;;;;4961765;28;19920;-81
2023/06/24 13:04:19;;;;;;;;;;;26.50;38.40;;;;;;5027441;28;19922;-84
2023/06/24 13:06:45;;;;;;;;;;;26.60;39.90;;;;;;4964108;28;19918;-81
2023/06/24 13:09:11;;;;;;;;;;;26.80;38.50;;;;;;5034222;28;19929;-80
2023/06/24 13:11:37;;;;;;;;;;;26.60;38.30;;;;;;5038988;28;19997;-82
2023/06/24 13:14:03;;;;;;;;;;;26.70;39.20;;;;;;5046080;28;19921;-80
2023/06/24 13:16:28;;;;;;;;;;;26.60;38.60;;;;;;5038059;28;20231;-80
2023/06/24 13:18:53;;;;;;;;;;;26.60;38.80;;;;;;4969203;28;19918;-79
2023/06/24 13:21:19;;;;;;;;;;;26.80;37.90;;;;;;4978718;28;19914;-82
2023/06/24 13:23:46;;;;;;;;;;;26.70;37.70;;;;;;5037351;28;19933;-82
2023/06/24 13:26:11;;;;;;;;;;;26.70;37.10;;;;;;4968143;28;19921;-81
2023/06/24 13:28:37;;;;;;;;;;;26.70;37.30;;;;;;5027945;28;19914;-79
2023/06/24 13:31:03;;;;;;;;;;;26.60;36.60;;;;;;5028718;28;19914;-81
2023/06/24 13:33:29;;;;;;;;;;;26.40;39.90;;;;;;5033511;28;20262;-79
2023/06/24 13:35:54;;;;;;;;;;;26.70;39.20;;;;;;5056918;28;19918;-80
2023/06/24 13:38:20;;;;;;;;;;;26.80;38.00;;;;;;4976897;28;19911;-81
2023/06/24 13:40:46;;;;;;;;;;;26.90;38.50;;;;;;4977183;28;20413;-81
2023/06/24 13:43:11;;;;;;;;;;;27.00;39.20;;;;;;5036566;28;20142;-81
2023/06/24 13:45:37;;;;;;;;;;;27.00;38.60;;;;;;5056441;28;19918;-80
2023/06/24 13:48:02;;;;;;;;;;;27.00;39.60;;;;;;5036203;28;19914;-78
2023/06/24 13:50:29;;;;;;;;;;;27.00;40.60;;;;;;5046856;28;20001;-79
2023/06/24 13:52:54;;;;;;;;;;;26.80;42.00;;;;;;4964937;28;19918;-79
2023/06/24 13:55:20;;;;;;;;;;;26.60;39.00;;;;;;4972192;28;19926;-78
2023/06/24 13:57:45;;;;;;;;;;;26.40;41.00;;;;;;5032105;28;20165;-79
2023/06/24 14:00:11;;;;;;;;;;;26.50;39.00;;;;;;4971046;28;20298;-79
2023/06/24 14:02:37;;;;;;;;;;;26.50;40.00;;;;;;5038922;28;19971;-79
2023/06/24 14:05:03;;;;;;;;;;;26.50;39.10;;;;;;5037252;28;20075;-78
2023/06/24 14:07:29;;;;;;;;;;;26.70;39.10;;;;;;4970609;28;20459;-79
2023/06/24 14:09:54;;;;;;;;;;;26.70;38.40;;;;;;4964027;28;19926;-78
2023/06/24 14:12:20;;;;;;;;;;;26.70;38.50;;;;;;5029660;28;19914;-79
2023/06/24 14:14:45;;;;;;;;;;;26.70;39.20;;;;;;5031561;28;20304;-82
2023/06/24 14:17:12;;;;;;;;;;;26.70;38.40;;;;;;4967506;28;19914;-82